Time;durP1;ratioP1;P1;durP2;ratioP2;P2;SDS_P1;SDS_P2;PMS_P1;PMS_P2;Temp;Humidity;BMP_temperature;BMP_pressure;BME280_temperature;BME280_humidity;BME280_pressure;Samples;Min_cycle;Max_cycle;Signal;HPM_P1;HPM_P2
2021/07/27 00:00:36;;;;;;;27.93;14.13;;;18.90;99.90;;;;;;5038596;28;20210;-88
2021/07/27 00:03:03;;;;;;;26.63;13.23;;;18.90;99.90;;;;;;5039459;28;20331;-90
2021/07/27 00:05:30;;;;;;;23.93;13.33;;;18.90;99.90;;;;;;5034776;28;20214;-94
2021/07/27 00:07:56;;;;;;;21.70;11.73;;;18.90;99.90;;;;;;5021792;28;20228;-89
2021/07/27 00:10:27;;;;;;;21.07;10.87;;;18.80;99.90;;;;;;5041444;28;20191;-89
2021/07/27 00:12:53;;;;;;;18.17;9.70;;;18.80;99.90;;;;;;5041868;28;20526;-90
2021/07/27 00:15:19;;;;;;;13.87;9.07;;;18.80;99.90;;;;;;5024201;28;20675;-87
2021/07/27 00:17:44;;;;;;;14.50;8.00;;;18.70;99.90;;;;;;5041687;28;20341;-88
2021/07/27 00:20:11;;;;;;;16.57;7.43;;;18.70;99.90;;;;;;5024496;28;20228;-92
2021/07/27 00:22:40;;;;;;;11.27;6.90;;;18.70;99.90;;;;;;5041907;28;20197;-87
2021/07/27 00:25:08;;;;;;;13.27;7.93;;;18.60;99.90;;;;;;5041631;28;20198;-86
2021/07/27 00:27:37;;;;;;;12.57;7.47;;;18.60;99.90;;;;;;5039521;28;20408;-86
2021/07/27 00:30:06;;;;;;;14.03;8.43;;;18.60;99.90;;;;;;5024247;28;20214;-89
2021/07/27 00:32:32;;;;;;;10.97;7.33;;;18.60;99.90;;;;;;5023359;28;20569;-86
2021/07/27 00:34:58;;;;;;;11.20;6.47;;;18.70;99.90;;;;;;5041237;28;20703;-89
2021/07/27 00:37:28;;;;;;;10.67;6.53;;;18.60;99.90;;;;;;5023998;28;20198;-85
2021/07/27 00:39:55;;;;;;;11.60;5.97;;;18.60;99.90;;;;;;5032620;28;20220;-90
2021/07/27 00:42:21;;;;;;;14.20;7.20;;;18.60;99.90;;;;;;5023885;28;20287;-91
2021/07/27 00:44:47;;;;;;;10.40;5.43;;;18.60;99.90;;;;;;5042020;28;20226;-88
2021/07/27 00:47:13;;;;;;;10.83;6.03;;;18.60;99.90;;;;;;5024855;28;20240;-86
2021/07/27 00:49:39;;;;;;;8.60;5.23;;;18.60;99.90;;;;;;5033597;28;20606;-86
2021/07/27 00:52:05;;;;;;;8.23;5.03;;;18.50;99.90;;;;;;5056903;28;20647;-89
2021/07/27 00:54:32;;;;;;;6.70;4.43;;;18.50;99.90;;;;;;5058656;28;20240;-86
2021/07/27 00:56:58;;;;;;;7.87;4.27;;;18.50;99.90;;;;;;5028604;28;20229;-87
2021/07/27 00:59:24;;;;;;;8.00;4.40;;;18.50;99.90;;;;;;5040233;28;20221;-86
2021/07/27 01:01:50;;;;;;;8.43;4.23;;;18.50;99.90;;;;;;5052924;28;20611;-90
2021/07/27 01:04:16;;;;;;;6.03;4.53;;;18.50;99.90;;;;;;5056019;28;20201;-88
2021/07/27 01:06:41;;;;;;;6.23;3.53;;;18.60;99.90;;;;;;5051291;28;20260;-87
2021/07/27 01:09:07;;;;;;;4.90;3.23;;;18.50;99.90;;;;;;5041122;28;21045;-86
2021/07/27 01:11:41;;;;;;;4.77;2.83;;;18.40;99.90;;;;;;5050121;28;20429;-89
2021/07/27 01:14:07;;;;;;;10.03;2.47;;;18.30;99.90;;;;;;5053915;28;20220;-86
2021/07/27 01:16:35;;;;;;;9.47;1.63;;;18.20;99.90;;;;;;5034175;28;20185;-91
2021/07/27 01:40:45;;;;;;;3.67;1.67;;;17.80;99.90;;;;;;5030721;28;20186;-88
2021/07/27 01:43:17;;;;;;;2.70;1.73;;;17.80;99.90;;;;;;5030531;28;20571;-87
2021/07/27 01:45:42;;;;;;;3.80;1.90;;;17.80;99.90;;;;;;5015236;28;20613;-88
2021/07/27 01:48:08;;;;;;;2.87;1.80;;;17.90;99.90;;;;;;5036015;28;20222;-88
2021/07/27 01:50:34;;;;;;;4.03;2.20;;;17.90;99.90;;;;;;5023437;28;20218;-88
2021/07/27 01:53:04;;;;;;;2.33;2.00;;;17.80;99.90;;;;;;5040078;28;20230;-90
2021/07/27 01:55:34;;;;;;;2.90;1.60;;;17.80;99.90;;;;;;5039049;28;20198;-92
2021/07/27 01:58:04;;;;;;;3.27;2.30;;;17.80;99.90;;;;;;5040116;28;20248;-88
2021/07/27 02:00:32;;;;;;;4.00;2.20;;;17.80;99.90;;;;;;5040554;28;20229;-90
2021/07/27 02:02:57;;;;;;;4.47;2.23;;;17.90;99.90;;;;;;5045658;28;20243;-87
2021/07/27 02:05:23;;;;;;;3.17;2.03;;;17.90;99.90;;;;;;5039985;28;20279;-92
2021/07/27 02:07:51;;;;;;;6.13;2.63;;;17.90;99.90;;;;;;5023953;28;20221;-88
2021/07/27 02:10:18;;;;;;;4.13;2.50;;;17.90;99.90;;;;;;5058519;28;20189;-93
2021/07/27 02:13:00;;;;;;;5.63;2.47;;;18.00;99.90;;;;;;5012461;28;20222;-89
2021/07/27 02:15:44;;;;;;;2.90;2.27;;;18.00;99.90;;;;;;5016747;28;20218;-93
2021/07/27 02:18:10;;;;;;;7.97;4.20;;;18.00;99.90;;;;;;5036564;28;20245;-92
2021/07/27 02:20:37;;;;;;;10.87;5.80;;;18.00;99.90;;;;;;5029579;28;20695;-88
2021/07/27 02:23:04;;;;;;;8.27;5.47;;;18.10;99.90;;;;;;5013696;28;20698;-89
2021/07/27 02:25:30;;;;;;;13.23;5.37;;;18.20;99.90;;;;;;5048730;28;20682;-91
2021/07/27 02:27:59;;;;;;;16.90;6.03;;;18.20;99.90;;;;;;5039343;28;20236;-89
2021/07/27 02:30:25;;;;;;;14.50;6.37;;;18.30;99.90;;;;;;5057659;28;20218;-90
2021/07/27 02:32:51;;;;;;;12.03;5.80;;;18.20;99.90;;;;;;5050444;28;20546;-88
2021/07/27 02:35:18;;;;;;;9.63;5.53;;;18.20;99.90;;;;;;5032154;28;20230;-89
2021/07/27 02:37:44;;;;;;;11.37;5.20;;;18.20;99.90;;;;;;5048033;28;20243;-89
2021/07/27 02:40:10;;;;;;;10.43;5.73;;;18.20;99.90;;;;;;5049295;28;20560;-89
2021/07/27 02:42:36;;;;;;;13.57;5.60;;;18.20;99.90;;;;;;5049876;28;20217;-90
2021/07/27 02:45:07;;;;;;;10.70;6.00;;;18.30;99.90;;;;;;5033411;28;20221;-87
2021/07/27 02:47:33;;;;;;;13.47;7.83;;;18.30;99.90;;;;;;5050547;28;20224;-89
2021/07/27 02:49:59;;;;;;;7.73;5.93;;;18.30;99.90;;;;;;5050926;28;20228;-91
2021/07/27 02:52:25;;;;;;;14.47;8.00;;;18.30;99.90;;;;;;5035369;28;20221;-92
2021/07/27 02:54:50;;;;;;;10.83;6.73;;;18.30;99.90;;;;;;5048572;28;20589;-88
2021/07/27 02:57:16;;;;;;;15.37;7.53;;;18.20;99.90;;;;;;5050433;28;20221;-90
2021/07/27 02:59:42;;;;;;;14.90;8.27;;;18.20;99.90;;;;;;5042387;28;20224;-90
2021/07/27 03:02:08;;;;;;;13.67;6.77;;;18.10;99.90;;;;;;5042165;28;21082;-88
2021/07/27 03:04:34;;;;;;;15.80;7.50;;;18.10;99.90;;;;;;5053612;28;20251;-92
2021/07/27 03:06:59;;;;;;;10.80;6.30;;;18.10;99.90;;;;;;5047221;28;20651;-89
2021/07/27 03:09:30;;;;;;;13.27;7.27;;;18.00;99.90;;;;;;5046165;28;20262;-91
2021/07/27 03:11:56;;;;;;;13.27;7.40;;;18.00;99.90;;;;;;5038805;28;20714;-90
2021/07/27 03:14:23;;;;;;;11.83;7.43;;;18.00;99.90;;;;;;5011682;28;20218;-92
2021/07/27 03:16:49;;;;;;;12.97;7.30;;;17.90;99.90;;;;;;5032687;28;20659;-90
2021/07/27 03:19:17;;;;;;;14.47;8.23;;;17.80;99.90;;;;;;5010376;28;20205;-87
2021/07/27 03:21:42;;;;;;;11.20;6.40;;;17.80;99.90;;;;;;5047852;28;20221;-91
2021/07/27 03:24:08;;;;;;;8.03;6.33;;;17.70;99.90;;;;;;5032723;28;20224;-88
2021/07/27 03:26:34;;;;;;;9.87;5.73;;;17.70;99.90;;;;;;5043656;28;20737;-90
2021/07/27 03:29:00;;;;;;;15.77;6.27;;;17.60;99.90;;;;;;5035691;28;20663;-89
2021/07/27 03:31:28;;;;;;;10.87;6.27;;;17.60;99.90;;;;;;5033255;28;20644;-89
2021/07/27 03:33:54;;;;;;;10.63;5.67;;;17.50;99.90;;;;;;5032620;28;20209;-90
2021/07/27 03:36:20;;;;;;;8.13;4.90;;;17.40;99.90;;;;;;5034748;28;20317;-90
2021/07/27 03:38:46;;;;;;;8.73;5.23;;;17.40;99.90;;;;;;5045792;28;20292;-88
2021/07/27 03:41:13;;;;;;;14.10;5.90;;;17.30;99.90;;;;;;5037032;28;20255;-89
2021/07/27 03:43:39;;;;;;;13.90;5.63;;;17.30;99.90;;;;;;5053021;28;20419;-89
2021/07/27 03:46:05;;;;;;;12.63;5.97;;;17.30;99.90;;;;;;5033567;28;20233;-89
2021/07/27 03:48:31;;;;;;;12.47;6.03;;;17.30;99.90;;;;;;5031509;28;20218;-90
2021/07/27 03:50:58;;;;;;;16.07;6.83;;;17.30;99.90;;;;;;5018456;28;20209;-88
2021/07/27 03:53:24;;;;;;;10.70;5.67;;;17.30;99.90;;;;;;5031257;28;20242;-93
2021/07/27 03:55:52;;;;;;;14.47;6.30;;;17.30;99.90;;;;;;5049080;28;20204;-91
2021/07/27 03:58:18;;;;;;;11.47;5.67;;;17.30;99.90;;;;;;5033055;28;20239;-88
2021/07/27 04:00:43;;;;;;;9.53;5.60;;;17.30;99.90;;;;;;5057514;28;20248;-89
2021/07/27 04:03:12;;;;;;;15.60;7.07;;;17.30;99.90;;;;;;5043067;28;20256;-92
2021/07/27 04:05:37;;;;;;;12.07;6.37;;;17.30;99.90;;;;;;5042747;28;20221;-88
2021/07/27 04:08:03;;;;;;;12.10;7.07;;;17.20;99.90;;;;;;5043446;28;20255;-88
2021/07/27 04:10:29;;;;;;;13.53;6.77;;;17.20;99.90;;;;;;5032228;28;20197;-91
2021/07/27 04:13:01;;;;;;;11.17;6.83;;;17.20;99.90;;;;;;5024940;28;20697;-87
2021/07/27 04:15:27;;;;;;;14.37;7.13;;;17.20;99.90;;;;;;5032836;28;20732;-91
2021/07/27 04:17:52;;;;;;;10.77;6.40;;;17.20;99.90;;;;;;5054833;28;21044;-92
2021/07/27 04:20:18;;;;;;;10.33;6.53;;;17.20;99.90;;;;;;5034662;28;20227;-91
2021/07/27 04:22:44;;;;;;;13.30;5.90;;;17.20;99.90;;;;;;5030021;28;20194;-89
2021/07/27 04:25:10;;;;;;;9.90;6.60;;;17.20;99.90;;;;;;5017028;28;20226;-88
2021/07/27 04:27:35;;;;;;;16.07;7.13;;;17.20;99.90;;;;;;5031815;28;20226;-89
2021/07/27 04:30:01;;;;;;;13.97;6.90;;;17.10;99.90;;;;;;5021498;28;20740;-88
2021/07/27 04:32:29;;;;;;;13.30;6.93;;;17.10;99.90;;;;;;5007092;28;20225;-88
2021/07/27 04:34:55;;;;;;;10.63;6.30;;;17.20;99.90;;;;;;5016108;28;20254;-91
2021/07/27 04:37:21;;;;;;;13.73;7.07;;;17.10;99.90;;;;;;5034265;28;20295;-87
2021/07/27 04:39:50;;;;;;;15.73;8.13;;;17.20;99.90;;;;;;5048402;28;20232;-89
2021/07/27 04:42:16;;;;;;;17.27;8.40;;;17.20;99.90;;;;;;5035487;28;20214;-88
2021/07/27 04:44:41;;;;;;;14.30;6.73;;;17.20;99.90;;;;;;5048720;28;20213;-88
2021/07/27 04:47:07;;;;;;;15.30;8.97;;;17.20;99.90;;;;;;5052989;28;20710;-90
2021/07/27 04:49:33;;;;;;;10.30;6.70;;;17.30;99.90;;;;;;5045464;28;20642;-85
2021/07/27 04:51:59;;;;;;;14.80;7.47;;;17.40;99.90;;;;;;5050015;28;20178;-90
2021/07/27 04:54:30;;;;;;;13.97;8.03;;;17.50;99.90;;;;;;5030579;28;22929;-88
2021/07/27 04:56:56;;;;;;;14.23;8.33;;;17.60;99.90;;;;;;5056703;28;20658;-89
2021/07/27 04:59:22;;;;;;;15.53;8.00;;;17.70;99.90;;;;;;5031949;28;20214;-88
2021/07/27 05:01:48;;;;;;;15.67;8.80;;;17.90;99.90;;;;;;5028176;28;20539;-90
2021/07/27 05:04:13;;;;;;;15.33;8.57;;;18.10;99.90;;;;;;5025208;28;20185;-90
2021/07/27 05:06:39;;;;;;;16.47;7.77;;;18.30;99.90;;;;;;5062430;28;20634;-89
2021/07/27 05:09:05;;;;;;;14.87;8.17;;;18.30;99.90;;;;;;5060345;28;20518;-89
2021/07/27 05:11:31;;;;;;;18.20;8.03;;;18.60;99.90;;;;;;5036813;28;20216;-87
2021/07/27 05:13:57;;;;;;;14.47;7.77;;;18.70;99.90;;;;;;5025032;28;20221;-89
2021/07/27 05:16:23;;;;;;;22.80;7.67;;;18.80;99.90;;;;;;5026829;28;20653;-88
2021/07/27 05:18:50;;;;;;;11.60;7.57;;;18.80;99.90;;;;;;5041311;28;20288;-88
2021/07/27 05:21:17;;;;;;;11.87;7.10;;;18.90;99.90;;;;;;5040641;28;20217;-88
2021/07/27 05:23:42;;;;;;;10.37;7.27;;;18.80;99.90;;;;;;5029554;28;20217;-89
2021/07/27 05:26:08;;;;;;;11.77;6.73;;;18.80;99.90;;;;;;5025121;28;20236;-90
2021/07/27 05:28:34;;;;;;;12.47;6.87;;;18.90;99.90;;;;;;5043806;28;20639;-89
2021/07/27 05:31:03;;;;;;;15.67;6.80;;;19.20;99.90;;;;;;5043186;28;20776;-94
2021/07/27 05:33:28;;;;;;;15.40;8.63;;;19.60;99.90;;;;;;5040835;28;20243;-88
2021/07/27 05:35:54;;;;;;;15.93;8.83;;;20.50;99.90;;;;;;5054165;28;20252;-91
2021/07/27 05:38:20;;;;;;;10.30;6.57;;;20.90;99.90;;;;;;5059802;28;20237;-94
2021/07/27 05:40:53;;;;;;;13.77;6.47;;;20.60;99.90;;;;;;5041675;28;20181;-88
2021/07/27 05:43:19;;;;;;;15.43;7.33;;;20.60;99.90;;;;;;5043175;28;20239;-88
2021/07/27 05:45:45;;;;;;;16.57;8.07;;;20.30;99.90;;;;;;5050733;28;20227;-91
2021/07/27 05:48:10;;;;;;;12.93;6.90;;;20.30;99.90;;;;;;5058844;28;20225;-91
2021/07/27 05:50:36;;;;;;;13.03;7.30;;;20.40;99.90;;;;;;5041733;28;20216;-94
2021/07/27 05:53:02;;;;;;;12.97;7.40;;;20.90;99.90;;;;;;5060895;28;20268;-86
2021/07/27 05:55:28;;;;;;;11.20;5.93;;;20.60;99.90;;;;;;5057753;28;20679;-91
2021/07/27 05:57:54;;;;;;;15.20;7.63;;;20.50;99.90;;;;;;5049001;28;20283;-85
2021/07/27 06:00:19;;;;;;;16.57;7.07;;;20.30;99.90;;;;;;5056820;28;20239;-90
2021/07/27 06:02:45;;;;;;;11.17;6.10;;;20.20;99.90;;;;;;5055176;28;20216;-92
2021/07/27 06:05:11;;;;;;;13.10;7.47;;;20.20;99.90;;;;;;5055711;28;20227;-86
2021/07/27 06:07:37;;;;;;;19.50;7.07;;;20.30;99.90;;;;;;5041794;28;20209;-89
2021/07/27 06:10:03;;;;;;;15.37;7.23;;;20.60;99.90;;;;;;5033131;28;20658;-90
2021/07/27 06:12:29;;;;;;;11.27;6.20;;;21.20;99.90;;;;;;5060704;28;20221;-94
2021/07/27 06:14:54;;;;;;;10.50;7.20;;;21.30;99.90;;;;;;5060247;28;20244;-89
2021/07/27 06:17:20;;;;;;;10.53;6.70;;;21.60;99.90;;;;;;5062731;28;20255;-94
2021/07/27 06:19:46;;;;;;;10.17;5.97;;;21.70;99.90;;;;;;5061541;28;20197;-89
2021/07/27 06:22:12;;;;;;;10.63;6.53;;;21.70;99.90;;;;;;5062180;28;20517;-92
2021/07/27 06:24:38;;;;;;;9.90;6.30;;;21.70;99.90;;;;;;5061899;28;20217;-90
2021/07/27 06:27:06;;;;;;;9.83;6.40;;;21.60;99.90;;;;;;5069505;28;20495;-90
2021/07/27 06:29:32;;;;;;;12.13;6.50;;;21.50;99.90;;;;;;5063653;28;20232;-93
2021/07/27 06:31:57;;;;;;;11.40;6.33;;;21.60;99.90;;;;;;5061218;28;20213;-91
2021/07/27 06:34:23;;;;;;;7.57;5.87;;;21.80;99.90;;;;;;5046670;28;20345;-91
2021/07/27 06:36:51;;;;;;;11.03;6.70;;;22.40;99.90;;;;;;5061714;28;20216;-90
2021/07/27 06:39:17;;;;;;;10.90;6.80;;;22.90;99.90;;;;;;5070476;28;20209;-91
2021/07/27 06:41:44;;;;;;;9.37;5.30;;;22.40;99.90;;;;;;5054840;28;20231;-92
2021/07/27 06:44:09;;;;;;;14.07;5.90;;;22.50;99.90;;;;;;5062006;28;20213;-93
2021/07/27 06:46:37;;;;;;;10.20;5.60;;;23.20;99.90;;;;;;5061859;28;20213;-96
2021/07/27 06:49:04;;;;;;;9.60;5.70;;;23.50;99.90;;;;;;5062871;28;20213;-89
2021/07/27 06:51:30;;;;;;;9.43;5.23;;;22.90;99.90;;;;;;5062455;28;20213;-89
2021/07/27 06:53:55;;;;;;;12.40;6.13;;;22.50;99.90;;;;;;5061870;28;20271;-91
2021/07/27 06:56:21;;;;;;;12.77;5.90;;;22.10;99.90;;;;;;5054331;28;20212;-92
2021/07/27 06:58:47;;;;;;;9.70;5.93;;;22.40;99.90;;;;;;5042886;28;20194;-92
2021/07/27 07:01:14;;;;;;;11.73;6.27;;;23.40;99.90;;;;;;5058397;28;20355;-95
2021/07/27 07:03:41;;;;;;;11.20;5.90;;;24.10;99.90;;;;;;5062905;28;20225;-91
2021/07/27 07:06:16;;;;;;;12.30;7.20;;;24.70;99.90;;;;;;5063642;28;20294;-90
2021/07/27 07:08:42;;;;;;;11.43;6.80;;;24.20;99.90;;;;;;5043848;28;20241;-90
2021/07/27 07:11:08;;;;;;;12.20;7.23;;;24.00;99.90;;;;;;5053776;28;20702;-94
2021/07/27 07:13:34;;;;;;;13.07;6.72;;;23.90;99.90;;;;;;5021767;28;20194;-89
2021/07/27 07:16:03;;;;;;;11.70;7.77;;;24.00;99.90;;;;;;5022771;28;20190;-93
2021/07/27 07:18:29;;;;;;;15.37;8.77;;;23.40;99.90;;;;;;5042533;28;20209;-91
2021/07/27 07:20:54;;;;;;;19.80;9.43;;;22.50;99.90;;;;;;5039913;28;20240;-91
2021/07/27 07:23:21;;;;;;;17.53;9.67;;;22.20;99.90;;;;;;5042721;28;20217;-92
2021/07/27 07:25:50;;;;;;;15.30;9.00;;;22.80;99.90;;;;;;5043190;28;20186;-91
2021/07/27 07:28:16;;;;;;;18.67;8.40;;;23.50;99.90;;;;;;5034714;28;20202;-91
2021/07/27 07:30:42;;;;;;;21.90;10.13;;;24.70;99.90;;;;;;5043112;28;20228;-94
2021/07/27 07:33:09;;;;;;;18.57;9.73;;;25.70;99.90;;;;;;5036051;28;20225;-91
2021/07/27 07:35:35;;;;;;;15.27;7.60;;;26.90;99.90;;;;;;5043813;28;20221;-92
2021/07/27 07:38:05;;;;;;;13.90;8.80;;;27.90;99.90;;;;;;5053242;28;20231;-92
2021/07/27 07:40:33;;;;;;;18.65;9.02;;;27.00;99.90;;;;;;5057893;28;20178;-92
2021/07/27 07:43:00;;;;;;;19.17;8.75;;;27.40;99.90;;;;;;5049205;28;20309;-91
2021/07/27 07:45:27;;;;;;;15.23;9.30;;;28.10;99.90;;;;;;5037671;28;20268;-93
2021/07/27 07:47:53;;;;;;;15.85;9.27;;;29.10;99.90;;;;;;5041214;28;20248;-90
2021/07/27 07:50:19;;;;;;;13.98;8.45;;;29.10;99.90;;;;;;5044877;28;20233;-91
2021/07/27 07:52:45;;;;;;;13.77;8.05;;;29.60;99.90;;;;;;5029711;28;20236;-89
2021/07/27 07:55:11;;;;;;;13.98;8.93;;;29.30;99.90;;;;;;5032905;28;20639;-90
2021/07/27 07:57:38;;;;;;;16.90;9.25;;;30.00;99.90;;;;;;5049267;28;20573;-90
2021/07/27 08:00:05;;;;;;;15.73;9.45;;;29.90;99.90;;;;;;5046418;28;20260;-93
2021/07/27 08:02:31;;;;;;;16.38;9.25;;;29.40;99.90;;;;;;5041684;28;20264;-93
2021/07/27 08:04:57;;;;;;;14.90;8.45;;;29.80;99.90;;;;;;5025728;28;20263;-89
2021/07/27 08:07:23;;;;;;;20.15;9.60;;;29.60;99.90;;;;;;5046894;28;20214;-94
2021/07/27 08:09:49;;;;;;;15.98;9.43;;;29.00;99.90;;;;;;5044924;28;20754;-89
2021/07/27 08:12:15;;;;;;;17.23;9.60;;;29.40;99.90;;;;;;5048920;28;20282;-90
2021/07/27 08:14:43;;;;;;;17.65;10.48;;;31.10;99.90;;;;;;5049647;28;20236;-90
2021/07/27 08:17:10;;;;;;;17.75;10.25;;;30.80;99.90;;;;;;5060616;28;20356;-88
2021/07/27 08:19:36;;;;;;;16.77;10.25;;;30.80;99.90;;;;;;5048120;28;20631;-90
2021/07/27 08:22:03;;;;;;;21.98;10.75;;;30.40;99.90;;;;;;5049676;28;20190;-88
2021/07/27 08:24:30;;;;;;;24.75;10.98;;;29.70;99.90;;;;;;5048088;28;20218;-87
2021/07/27 08:26:56;;;;;;;21.60;11.48;;;28.50;99.90;;;;;;5048278;28;20229;-88
2021/07/27 08:29:22;;;;;;;21.27;11.60;;;27.10;99.90;;;;;;5039781;28;20221;-88
2021/07/27 08:31:49;;;;;;;20.05;12.00;;;27.60;99.90;;;;;;5061369;28;20174;-88
2021/07/27 08:34:19;;;;;;;22.08;13.10;;;28.10;99.90;;;;;;5031854;28;20587;-87
2021/07/27 08:36:45;;;;;;;27.48;13.68;;;27.10;99.90;;;;;;5067659;28;20221;-88
2021/07/27 08:39:12;;;;;;;28.13;15.65;;;27.20;99.90;;;;;;5072920;28;20232;-88
2021/07/27 08:41:39;;;;;;;26.13;13.45;;;27.30;99.90;;;;;;5051409;28;20244;-88
2021/07/27 08:44:16;;;;;;;22.70;12.98;;;26.50;99.90;;;;;;5064550;28;20681;-87
2021/07/27 08:46:45;;;;;;;24.42;14.55;;;25.30;99.90;;;;;;5050105;28;20586;-90
2021/07/27 08:49:12;;;;;;;26.02;14.80;;;24.80;99.90;;;;;;5055011;28;20182;-88
2021/07/27 08:51:38;;;;;;;29.95;14.57;;;23.90;99.90;;;;;;5047407;28;20214;-88
2021/07/27 08:54:07;;;;;;;30.33;14.25;;;23.70;99.90;;;;;;5047596;28;20705;-90
2021/07/27 08:56:33;;;;;;;24.90;15.20;;;23.70;99.90;;;;;;5037245;28;20272;-88
2021/07/27 08:58:58;;;;;;;25.00;13.68;;;23.90;99.90;;;;;;5049236;28;20230;-88
2021/07/27 09:01:26;;;;;;;26.73;14.55;;;23.90;99.90;;;;;;5053723;28;20285;-88
2021/07/27 09:03:52;;;;;;;33.20;15.75;;;24.40;99.90;;;;;;5032056;28;20415;-93
2021/07/27 09:06:22;;;;;;;26.02;14.38;;;24.40;99.90;;;;;;5043405;28;20266;-88
2021/07/27 09:08:48;;;;;;;28.58;15.18;;;24.00;99.90;;;;;;5048388;28;20218;-88
2021/07/27 09:11:17;;;;;;;32.33;17.48;;;23.90;99.90;;;;;;5051263;28;20568;-88
2021/07/27 09:13:55;;;;;;;27.50;16.38;;;23.90;99.90;;;;;;5049489;28;20183;-89
2021/07/27 09:16:21;;;;;;;31.42;17.08;;;23.70;99.90;;;;;;5050338;28;20566;-89
2021/07/27 09:18:57;;;;;;;30.00;16.13;;;23.70;99.90;;;;;;5032787;28;20305;-89
2021/07/27 09:21:23;;;;;;;30.77;15.90;;;23.90;99.90;;;;;;5040610;28;20202;-88
2021/07/27 09:23:50;;;;;;;31.38;16.15;;;23.70;99.90;;;;;;5029876;28;20697;-88
2021/07/27 09:26:16;;;;;;;31.75;16.35;;;23.60;99.90;;;;;;5053799;28;20214;-88
2021/07/27 09:28:41;;;;;;;37.53;16.25;;;24.40;99.90;;;;;;5050515;28;20236;-90
2021/07/27 09:31:07;;;;;;;26.23;14.82;;;24.90;99.90;;;;;;5050814;28;20189;-94
2021/07/27 09:33:36;;;;;;;28.73;15.80;;;25.30;99.90;;;;;;5063891;28;20266;-94
2021/07/27 09:36:03;;;;;;;24.80;13.50;;;25.70;99.90;;;;;;5049770;28;20278;-91
2021/07/27 09:38:32;;;;;;;31.77;14.68;;;25.70;99.90;;;;;;5064826;28;20240;-92
2021/07/27 09:41:07;;;;;;;24.30;12.45;;;25.90;99.90;;;;;;5044875;28;20224;-92
2021/07/27 09:43:33;;;;;;;17.27;11.80;;;26.30;99.90;;;;;;5034698;28;20790;-85
2021/07/27 09:46:00;;;;;;;22.58;12.23;;;26.30;99.90;;;;;;5058637;28;20227;-88
2021/07/27 09:48:27;;;;;;;23.75;13.27;;;26.10;99.90;;;;;;5058615;28;20217;-88
2021/07/27 09:50:55;;;;;;;30.05;14.18;;;25.80;99.90;;;;;;5060727;28;20261;-88
2021/07/27 09:53:22;;;;;;;30.52;14.23;;;25.60;99.90;;;;;;5047097;28;20238;-90
2021/07/27 09:55:50;;;;;;;29.17;15.07;;;25.90;99.90;;;;;;5029428;28;20199;-92
2021/07/27 09:58:16;;;;;;;31.55;15.93;;;26.10;99.90;;;;;;5032898;28;20205;-91
2021/07/27 10:00:52;;;;;;;26.02;15.18;;;25.70;99.90;;;;;;5032393;28;20214;-91
2021/07/27 10:03:25;;;;;;;26.80;14.65;;;25.50;99.90;;;;;;5029090;28;20271;-92
2021/07/27 10:05:55;;;;;;;27.70;15.00;;;25.50;99.90;;;;;;5029524;28;20216;-93
2021/07/27 10:08:33;;;;;;;22.48;13.77;;;26.30;99.90;;;;;;5018035;28;20272;-92
2021/07/27 10:11:38;;;;;;;26.00;15.27;;;26.80;99.90;;;;;;5044346;28;20332;-91
2021/07/27 10:14:07;;;;;;;27.38;14.77;;;27.40;99.90;;;;;;5025162;28;20893;-89
2021/07/27 10:16:32;;;;;;;26.70;14.55;;;26.50;99.90;;;;;;5051955;28;20494;-90
2021/07/27 10:19:09;;;;;;;26.05;13.60;;;27.20;99.90;;;;;;5033384;28;20671;-90
2021/07/27 10:21:35;;;;;;;21.48;13.25;;;26.60;99.90;;;;;;5034756;28;20674;-89
2021/07/27 10:24:14;;;;;;;22.45;13.25;;;25.30;99.90;;;;;;5031403;28;20221;-91
2021/07/27 10:26:41;;;;;;;24.10;14.20;;;24.90;99.90;;;;;;5061315;28;20226;-91
2021/07/27 10:29:07;;;;;;;24.60;14.70;;;24.70;99.90;;;;;;5038283;28;20210;-92
2021/07/27 10:31:42;;;;;;;24.08;12.10;;;24.50;99.90;;;;;;5039792;28;20221;-90
2021/07/27 10:34:10;;;;;;;22.33;13.73;;;24.30;99.90;;;;;;5036758;28;20829;-93
2021/07/27 10:36:38;;;;;;;22.73;13.35;;;24.40;99.90;;;;;;5038404;28;20271;-92
2021/07/27 10:39:10;;;;;;;21.10;12.68;;;24.10;99.90;;;;;;5051135;28;20674;-92
2021/07/27 10:41:41;;;;;;;23.73;12.93;;;24.30;99.90;;;;;;5049634;28;20233;-91
2021/07/27 10:44:13;;;;;;;22.15;13.18;;;24.10;99.90;;;;;;5038392;28;20308;-90
2021/07/27 10:46:46;;;;;;;25.40;14.30;;;23.60;99.90;;;;;;5039800;28;20205;-91
2021/07/27 10:49:17;;;;;;;23.58;12.93;;;23.30;99.90;;;;;;5039217;28;20698;-93
2021/07/27 10:51:45;;;;;;;25.30;13.48;;;23.00;99.90;;;;;;5025420;28;20214;-91
2021/07/27 10:54:14;;;;;;;22.83;14.05;;;23.10;99.90;;;;;;5033369;28;20308;-92
2021/07/27 10:56:46;;;;;;;27.17;14.45;;;23.10;99.90;;;;;;5038968;28;20697;-92
2021/07/27 10:59:19;;;;;;;25.85;13.70;;;22.90;99.90;;;;;;5033393;28;20213;-89
2021/07/27 11:01:45;;;;;;;25.35;14.15;;;22.80;99.90;;;;;;5021265;28;20182;-90
2021/07/27 11:04:11;;;;;;;27.40;13.07;;;22.70;99.90;;;;;;5038727;28;20186;-91
2021/07/27 11:06:37;;;;;;;23.87;13.67;;;22.40;99.90;;;;;;5036492;28;20226;-90
2021/07/27 11:09:03;;;;;;;22.53;14.03;;;22.20;99.90;;;;;;5041024;28;20691;-90
2021/07/27 11:11:29;;;;;;;23.00;11.63;;;22.00;99.90;;;;;;5047911;28;20217;-91
2021/07/27 11:13:55;;;;;;;26.03;13.40;;;21.90;99.90;;;;;;5038409;28;20226;-91
2021/07/27 11:16:21;;;;;;;22.23;13.00;;;22.00;99.90;;;;;;5038538;28;20198;-88
2021/07/27 11:18:47;;;;;;;22.40;12.40;;;22.10;99.90;;;;;;5037846;28;20279;-87
2021/07/27 11:21:13;;;;;;;22.60;12.90;;;22.30;99.90;;;;;;5037395;28;20221;-89
2021/07/27 11:23:40;;;;;;;21.87;11.83;;;22.70;99.90;;;;;;5039841;28;20256;-89
2021/07/27 11:26:06;;;;;;;18.43;11.50;;;23.00;99.90;;;;;;5021823;28;20674;-88
2021/07/27 11:28:34;;;;;;;19.33;11.90;;;23.40;99.90;;;;;;5040162;28;20194;-88
2021/07/27 11:31:01;;;;;;;19.97;11.43;;;23.60;99.90;;;;;;5038746;28;20218;-86
2021/07/27 11:33:26;;;;;;;19.33;12.53;;;23.80;99.90;;;;;;5038520;28;20222;-88
2021/07/27 11:35:54;;;;;;;19.30;11.37;;;23.90;99.90;;;;;;5038962;28;20224;-88
2021/07/27 11:38:21;;;;;;;25.53;11.47;;;24.00;99.90;;;;;;5022199;28;20228;-88
2021/07/27 11:40:50;;;;;;;16.77;9.65;;;24.10;99.90;;;;;;5037174;28;20209;-90
2021/07/27 11:43:18;;;;;;;21.58;10.60;;;24.80;99.90;;;;;;5047841;28;20208;-91
2021/07/27 11:45:45;;;;;;;15.60;10.30;;;25.60;99.90;;;;;;5057617;28;20262;-94
2021/07/27 11:48:12;;;;;;;20.63;10.75;;;25.80;99.90;;;;;;5062952;28;20221;-89
2021/07/27 11:50:40;;;;;;;18.23;10.35;;;25.50;99.90;;;;;;5060770;28;20223;-92
2021/07/27 11:53:07;;;;;;;16.42;10.00;;;25.30;99.90;;;;;;5045542;28;20690;-90
2021/07/27 11:55:40;;;;;;;16.95;10.27;;;25.30;99.90;;;;;;5062366;28;20208;-91
2021/07/27 11:58:08;;;;;;;17.50;10.20;;;25.40;99.90;;;;;;5043023;28;20842;-94
2021/07/27 12:00:35;;;;;;;21.33;10.27;;;25.20;99.90;;;;;;5054880;28;20222;-91
2021/07/27 12:03:04;;;;;;;17.30;10.45;;;24.90;99.90;;;;;;5025393;28;20218;-91
2021/07/27 12:05:31;;;;;;;20.33;10.75;;;24.80;99.90;;;;;;5036420;28;20221;-92
2021/07/27 12:07:57;;;;;;;17.98;9.57;;;24.90;99.90;;;;;;5056829;28;20248;-92
2021/07/27 12:10:24;;;;;;;19.48;10.02;;;24.70;99.90;;;;;;5043157;28;20194;-90
2021/07/27 12:12:50;;;;;;;14.35;9.65;;;24.50;99.90;;;;;;5040961;28;20252;-90
2021/07/27 12:15:17;;;;;;;17.38;9.95;;;24.80;99.90;;;;;;5045589;28;20344;-93
2021/07/27 12:17:43;;;;;;;20.13;10.25;;;25.10;99.90;;;;;;5050359;28;20303;-93
2021/07/27 12:20:12;;;;;;;20.48;10.50;;;25.10;99.90;;;;;;5062858;28;20255;-91
2021/07/27 12:22:39;;;;;;;21.17;11.82;;;24.80;99.90;;;;;;5044997;28;20959;-91
2021/07/27 12:25:05;;;;;;;23.33;12.15;;;24.50;99.90;;;;;;5061667;28;20201;-90
2021/07/27 12:27:31;;;;;;;18.83;10.77;;;24.60;99.90;;;;;;5061312;28;20267;-91
2021/07/27 12:29:57;;;;;;;19.98;11.70;;;24.80;99.90;;;;;;5042811;28;20461;-90
2021/07/27 12:32:23;;;;;;;18.08;11.57;;;24.70;99.90;;;;;;5060742;28;20229;-92
2021/07/27 12:34:50;;;;;;;22.80;11.30;;;24.40;99.90;;;;;;5041942;28;20190;-91
2021/07/27 12:37:18;;;;;;;16.48;10.18;;;24.40;99.90;;;;;;5024957;28;20194;-89
2021/07/27 12:39:46;;;;;;;21.50;12.27;;;24.40;99.90;;;;;;5024686;28;20210;-91
2021/07/27 12:42:12;;;;;;;19.90;12.73;;;24.40;99.90;;;;;;5039680;28;20729;-95
2021/07/27 12:44:38;;;;;;;23.73;12.02;;;24.80;99.90;;;;;;5029457;28;20389;-96
2021/07/27 12:47:04;;;;;;;23.67;13.88;;;24.90;99.90;;;;;;5039170;28;20243;-89
2021/07/27 12:49:29;;;;;;;20.70;13.27;;;25.20;99.90;;;;;;5008955;28;20186;-91
2021/07/27 12:51:55;;;;;;;27.83;14.80;;;25.30;99.90;;;;;;5023463;28;20221;-89
2021/07/27 12:54:21;;;;;;;25.90;14.32;;;25.00;99.90;;;;;;5039991;28;20235;-93
2021/07/27 12:56:47;;;;;;;29.20;15.23;;;25.10;99.90;;;;;;5030872;28;20217;-91